Latest Weather Observations for Onslow Airport

IDW60801

Issued at 9:02 am WST Sunday 30 August 2015 (issued every 30 minutes, with the page automatically refreshed every 10 minutes)

About weather observations | Map of weather stations | Latest weather observations for WA | Other Formats
Station Details ID: 005017 Name: ONSLOW AIRPORT Lat: -21.67 Lon: 115.11 Height: 10.5 m
Data from the previous 72 hours. | See also: Recent months at Onslow Airport
Date/Time
WST
Temp
°C
App
Temp
°C
Dew
Point
Rel
Hum
%
Delta-T
°C
Wind Press
QNH
hPa
Press
MSL
hPa
Rain
since 9 am
mm
Dir
 
Spd
km/h
Gust
km/h
Spd
kts
Gust
kts
30/09:00am 22.7 19.2 14.5 60 4.8 SSE 26 35 14 19 1020.2 1020.2 0.0
30/08:30am 20.5 16.9 14.2 67 3.6 S 26 32 14 17 1020.1 1020.1 0.0
30/08:00am 18.8 16.3 14.1 74 2.7 S 20 28 11 15 1019.8 1019.8 0.0
30/07:30am 17.5 15.1 13.8 79 2.1 S 19 24 10 13 1019.4 1019.4 0.0
30/07:00am 16.6 14.6 13.9 84 1.5 SSW 17 22 9 12 1018.9 1018.9 0.0
30/06:30am 16.1 13.7 13.8 86 1.3 SSW 19 22 10 12 1018.5 1018.5 0.0
30/06:00am 16.1 14.1 13.9 87 1.2 S 17 22 9 12 1018.1 1018.1 0.0
30/05:30am 16.2 14.2 14.0 87 1.2 SSW 17 22 9 12 1017.9 1017.9 0.0
30/05:00am 16.5 14.6 14.2 86 1.3 SSW 17 20 9 11 1017.8 1017.8 0.0
30/04:30am 16.7 14.4 14.2 85 1.4 SSW 19 24 10 13 1017.6 1017.6 0.0
30/04:00am 17.0 15.2 14.5 85 1.4 SSW 17 26 9 14 1017.5 1017.5 0.0
30/03:30am 17.3 14.9 14.4 83 1.7 SSW 20 26 11 14 1017.4 1017.4 0.0
30/03:00am 17.5 15.2 14.6 83 1.7 SSW 20 24 11 13 1017.3 1017.3 0.0
30/02:30am 17.7 15.4 14.6 82 1.8 SSW 20 28 11 15 1017.4 1017.4 0.0
30/02:00am 17.9 15.7 14.8 82 1.8 SSW 20 24 11 13 1017.4 1017.4 0.0
30/01:30am 18.1 16.1 15.0 82 1.8 SSW 19 22 10 12 1017.5 1017.5 0.0
30/01:00am 18.5 15.9 15.0 80 2.0 SSW 22 26 12 14 1017.6 1017.6 0.0
30/12:30am 18.6 16.7 15.1 80 2.0 SSW 19 24 10 13 1017.8 1017.8 0.0
30/12:00am 18.8 17.2 15.1 79 2.2 SSW 17 22 9 12 1017.8 1017.8 0.0
 
Date/Time
WST
Temp
°C
App
Temp
°C
Dew
Point
Rel
Hum
%
Delta-T
°C
Wind Press
QNH
hPa
Press
MSL
hPa
Rain
since 9 am
mm
Dir
 
Spd
km/h
Gust
km/h
Spd
kts
Gust
kts
29/11:30pm 19.1 17.0 15.2 78 2.3 SW 20 26 11 14 1017.9 1017.9 0.0
29/11:00pm 19.5 16.9 15.0 75 2.6 SW 22 28 12 15 1017.8 1017.8 0.0
29/10:30pm 20.0 17.1 15.0 73 2.9 SW 24 30 13 16 1017.8 1017.8 0.0
29/10:00pm 20.5 17.1 14.8 70 3.3 SW 26 33 14 18 1017.9 1017.9 0.0
29/09:30pm 20.9 16.8 15.0 69 3.5 SW 30 39 16 21 1017.7 1017.7 0.0
29/09:00pm 21.1 17.9 15.2 69 3.5 SW 26 33 14 18 1017.6 1017.6 0.0
29/08:30pm 21.1 18.9 15.0 68 3.6 WSW 20 30 11 16 1017.3 1017.3 0.0
29/08:00pm 21.5 19.3 16.0 71 3.3 WSW 22 32 12 17 1017.0 1017.0 0.0
29/07:30pm 21.4 19.2 16.8 75 2.8 W 24 30 13 16 1016.6 1016.6 0.0
29/07:00pm 21.4 18.9 17.0 76 2.7 W 26 35 14 19 1016.2 1016.2 0.0
29/06:30pm 21.3 18.2 16.5 74 2.9 W 28 37 15 20 1016.0 1016.0 0.0
29/06:00pm 21.5 17.3 16.2 72 3.2 W 33 43 18 23 1015.6 1015.6 0.0
29/05:30pm 22.3 18.1 16.1 68 3.7 W 33 44 18 24 1015.2 1015.2 0.0
29/05:00pm 22.8 17.6 15.6 64 4.3 W 37 46 20 25 1014.9 1014.9 0.0
29/04:30pm 23.4 17.8 15.5 61 4.7 W 39 48 21 26 1014.8 1014.8 0.0
29/04:00pm 25.1 20.5 15.1 53 6.0 W 33 46 18 25 1014.8 1014.8 0.0
29/03:30pm 25.7 20.4 14.2 49 6.8 WNW 35 44 19 24 1014.8 1014.8 0.0
29/03:00pm 25.0 19.5 13.5 48 6.7 WNW 35 46 19 25 1015.0 1015.0 0.0
29/02:30pm 24.4 20.2 15.6 58 5.3 WNW 32 39 17 21 1015.3 1015.3 0.0
29/02:00pm 24.5 20.0 15.4 57 5.5 WNW 33 39 18 21 1015.8 1015.8 0.0
29/01:30pm 24.6 20.2 15.2 55 5.6 WNW 32 39 17 21 1016.0 1016.0 0.0
29/01:00pm 24.6 20.6 15.2 55 5.6 WNW 30 35 16 19 1016.5 1016.5 0.0
29/12:30pm 25.2 23.5 14.6 51 6.3 W 17 37 9 20 1016.9 1016.9 0.0
29/12:00pm 25.4 22.6 11.2 41 8.0 SSW 17 26 9 14 1017.4 1017.4 0.0
29/11:30am 24.9 22.6 11.8 44 7.4 SSW 15 24 8 13 1017.7 1017.7 0.0
29/11:00am 24.6 21.7 12.2 46 7.1 SW 19 26 10 14 1018.1 1018.1 0.0
29/10:30am 24.0 22.0 12.6 49 6.5 SSW 15 28 8 15 1018.5 1018.5 0.0
29/10:00am 23.2 20.4 13.1 53 5.8 SSW 20 28 11 15 1018.7 1018.7 0.0
29/09:30am 22.2 19.9 13.0 56 5.3 SSW 17 26 9 14 1018.8 1018.8 0.0
29/09:00am 21.6 19.3 14.0 62 4.4 S 19 24 10 13 1018.7 1018.7 0.0
29/08:30am 20.2 17.9 14.6 70 3.3 S 20 24 11 13 1018.7 1018.7 0.0
29/08:00am 19.1 16.8 14.6 75 2.6 S 20 28 11 15 1018.4 1018.4 0.0
29/07:30am 17.6 16.3 14.7 83 1.7 S 15 20 8 11 1018.1 1018.1 0.0
29/07:00am 16.7 15.2 14.3 86 1.4 SSW 15 19 8 10 1017.8 1017.8 0.0
29/06:30am 16.3 14.8 14.3 88 1.1 S 15 19 8 10 1017.6 1017.6 0.0
29/06:00am 16.2 14.7 14.2 88 1.1 S 15 19 8 10 1017.3 1017.3 0.0
29/05:30am 16.5 15.5 14.5 88 1.1 S 13 17 7 9 1016.9 1016.9 0.0
29/05:00am 17.0 15.6 14.6 86 1.4 SSW 15 19 8 10 1016.8 1016.8 0.0
29/04:30am 17.1 15.8 14.7 86 1.4 S 15 19 8 10 1016.7 1016.7 0.0
29/04:00am 17.7 16.1 15.0 84 1.6 SSW 17 20 9 11 1016.9 1016.9 0.0
29/03:30am 17.9 16.4 15.2 84 1.6 SSW 17 20 9 11 1017.0 1017.0 0.0
29/03:00am 17.9 16.4 15.2 84 1.6 SSW 17 20 9 11 1017.2 1017.2 0.0
29/02:30am 17.9 16.3 15.0 83 1.7 SW 17 20 9 11 1017.3 1017.3 0.0
29/02:00am 18.2 17.1 15.3 83 1.7 SSW 15 19 8 10 1017.5 1017.5 0.0
29/01:30am 18.2 17.4 15.1 82 1.8 SSW 13 15 7 8 1017.6 1017.6 0.0
29/01:00am 18.4 17.6 15.1 81 1.9 SSW 13 17 7 9 1017.8 1017.8 0.0
29/12:30am 18.2 17.4 15.1 82 1.8 SW 13 17 7 9 1018.0 1018.0 0.0
29/12:00am 18.1 17.7 15.2 83 1.7 SW 11 13 6 7 1017.9 1017.9 0.0
 
Date/Time
WST
Temp
°C
App
Temp
°C
Dew
Point
Rel
Hum
%
Delta-T
°C
Wind Press
QNH
hPa
Press
MSL
hPa
Rain
since 9 am
mm
Dir
 
Spd
km/h
Gust
km/h
Spd
kts
Gust
kts
28/11:30pm 17.8 17.0 15.1 84 1.6 SW 13 13 7 7 1018.0 1018.0 0.0
28/11:00pm 18.0 18.0 15.1 83 1.7 WSW 9 13 5 7 1018.0 1018.0 0.0
28/10:30pm 18.5 18.0 15.0 80 2.0 WSW 11 13 6 7 1018.0 1018.0 0.0
28/10:00pm 19.2 18.7 15.9 81 2.0 WSW 13 17 7 9 1017.9 1017.9 0.0
28/09:30pm 19.5 18.2 15.8 79 2.2 WSW 17 20 9 11 1017.8 1017.8 0.0
28/09:00pm 20.0 18.8 16.2 79 2.3 W 17 20 9 11 1017.4 1017.4 0.0
28/08:30pm 20.3 19.2 16.3 78 2.4 W 17 20 9 11 1017.1 1017.1 0.0
28/08:00pm 20.7 19.2 16.3 76 2.6 W 19 24 10 13 1016.8 1016.8 0.0
28/07:30pm 20.8 19.3 16.4 76 2.7 W 19 26 10 14 1016.4 1016.4 0.0
28/07:00pm 21.0 19.4 16.0 73 3.0 W 19 24 10 13 1016.1 1016.1 0.0
28/06:30pm 21.3 19.6 15.8 71 3.3 WNW 19 26 10 14 1015.9 1015.9 0.0
28/06:00pm 21.7 19.6 15.1 66 3.9 WNW 20 26 11 14 1015.5 1015.5 0.0
28/05:30pm 22.4 19.8 15.0 63 4.4 WNW 22 30 12 16 1015.2 1015.2 0.0
28/05:00pm 23.0 19.7 14.0 57 5.3 WNW 24 30 13 16 1015.1 1015.1 0.0
28/04:30pm 23.5 20.3 14.2 56 5.5 WNW 24 30 13 16 1015.0 1015.0 0.0
28/04:00pm 23.5 20.8 15.5 60 4.8 WNW 24 32 13 17 1014.9 1014.9 0.0
28/03:30pm 24.5 21.9 14.9 55 5.7 NW 22 28 12 15 1014.9 1014.9 0.0
28/03:00pm 24.2 21.5 14.6 55 5.7 WNW 22 30 12 16 1014.9 1014.9 0.0
28/02:30pm 24.6 22.1 15.2 55 5.6 WNW 22 28 12 15 1015.0 1015.0 0.0
28/02:00pm 24.4 21.9 15.1 56 5.6 NW 22 28 12 15 1015.2 1015.2 0.0
28/01:30pm 24.6 22.7 16.6 61 4.9 WNW 22 28 12 15 1015.6 1015.6 0.0
28/01:00pm 24.4 21.7 15.6 58 5.3 WNW 24 30 13 16 1015.9 1015.9 0.0
28/12:30pm 23.9 21.2 15.7 60 5.0 WNW 24 30 13 16 1016.1 1016.1 0.0
28/12:00pm 23.8 21.2 15.8 61 4.8 WNW 24 30 13 16 1016.5 1016.5 0.0
28/11:30am 23.9 21.5 15.4 59 5.1 WNW 22 28 12 15 1016.9 1016.9 0.0
28/11:00am 23.2 20.6 13.9 56 5.4 WNW 20 26 11 14 1017.1 1017.1 0.0
28/10:30am 23.0 20.8 13.2 54 5.7 WNW 17 22 9 12 1017.3 1017.3 0.0
28/10:00am 23.1 21.6 13.0 53 5.8 WNW 13 17 7 9 1017.5 1017.5 0.0
28/09:30am 21.7 21.5 13.1 58 4.9 WSW 6 11 3 6 1017.3 1017.3 0.0
28/09:00am 20.1 19.4 13.3 65 3.9 SSW 9 11 5 6 1017.4 1017.4 0.0
28/08:30am 18.9 17.9 13.3 70 3.2 SSW 11 15 6 8 1017.4 1017.4 0.0
28/08:00am 18.0 16.6 13.5 75 2.5 SW 13 17 7 9 1017.3 1017.3 0.0
28/07:30am 16.9 16.0 13.6 81 1.9 SW 11 15 6 8 1017.1 1017.1 0.0
28/07:00am 15.4 14.3 13.1 86 1.3 SW 11 13 6 7 1016.9 1016.9 0.0
28/06:30am 15.2 14.1 13.1 87 1.2 SW 11 13 6 7 1016.5 1016.5 0.0
28/06:00am 15.8 14.3 13.1 84 1.5 SW 13 17 7 9 1016.1 1016.1 0.0
28/05:30am 16.1 14.7 13.4 84 1.5 SW 13 17 7 9 1015.9 1015.9 0.0
28/05:00am 16.8 15.5 13.7 82 1.7 SW 13 17 7 9 1015.5 1015.5 0.0
28/04:30am 16.7 16.0 14.2 85 1.4 SW 11 13 6 7 1015.3 1015.3 0.0
28/04:00am 17.3 15.3 13.8 80 2.0 SSW 17 20 9 11 1015.4 1015.4 0.0
28/03:30am 17.6 15.8 14.5 82 1.8 SSW 17 20 9 11 1015.4 1015.4 0.0
28/03:00am 18.0 16.5 15.3 84 1.6 SSW 17 20 9 11 1015.5 1015.5 0.0
28/02:30am 18.3 17.0 15.7 85 1.5 SSW 17 20 9 11 1015.8 1015.8 0.0
28/02:00am 18.7 18.0 16.3 86 1.4 SSW 15 19 8 10 1016.1 1016.1 0.0
28/01:30am 17.8 17.7 16.1 90 1.0 SW 11 13 6 7 1016.3 1016.3 0.0
28/01:00am 18.2 18.6 16.4 89 1.1 SW 9 11 5 6 1016.4 1016.4 0.0
28/12:30am 18.2 18.3 16.4 89 1.1 WSW 11 13 6 7 1016.5 1016.5 0.0
28/12:00am 18.5 18.7 16.7 89 1.1 W 11 13 6 7 1016.7 1016.7 0.0
 
Date/Time
WST
Temp
°C
App
Temp
°C
Dew
Point
Rel
Hum
%
Delta-T
°C
Wind Press
QNH
hPa
Press
MSL
hPa
Rain
since 9 am
mm
Dir
 
Spd
km/h
Gust
km/h
Spd
kts
Gust
kts
27/11:30pm 19.0 19.6 16.8 87 1.3 W 9 11 5 6 1016.9 1016.9 0.0
27/11:00pm 18.9 19.5 16.9 88 1.2 WNW 9 11 5 6 1016.9 1016.9 0.0
27/10:30pm 19.0 18.5 17.0 88 1.2 WNW 15 17 8 9 1016.9 1016.9 0.0
27/10:00pm 19.0 19.3 17.0 88 1.2 NW 11 13 6 7 1017.1 1017.1 0.0
27/09:30pm 19.1 19.3 16.7 86 1.4 NW 11 13 6 7 1017.3 1017.3 0.0
27/09:00pm 20.1 20.2 17.5 85 1.6 NW 13 15 7 8 1017.2 1017.2 0.0
27/08:30pm 20.1 20.7 17.7 86 1.5 NW 11 13 6 7 1017.1 1017.1 0.0
27/08:00pm 20.3 20.9 17.7 85 1.6 WNW 11 13 6 7 1017.0 1017.0 0.0
27/07:30pm 20.4 20.5 17.4 83 1.8 WNW 13 13 7 7 1016.8 1016.8 0.0
27/07:00pm 21.0 20.8 17.6 81 2.1 NW 15 17 8 9 1016.5 1016.5 0.0
27/06:30pm 21.3 21.7 17.3 78 2.5 NW 11 15 6 8 1016.2 1016.2 0.0
27/06:00pm 22.1 22.1 17.2 74 3.0 NW 13 17 7 9 1015.9 1015.9 0.0
27/05:30pm 23.1 22.6 16.9 68 3.8 NW 15 20 8 11 1015.8 1015.8 0.0
27/05:00pm 23.8 22.4 15.6 60 4.9 NNW 17 22 9 12 1015.6 1015.6 0.0
27/04:30pm 25.0 23.1 14.2 51 6.4 NNW 17 24 9 13 1015.4 1015.4 0.0
27/04:00pm 25.8 23.5 14.0 48 7.0 NNW 19 22 10 12 1015.3 1015.3 0.0
27/03:30pm 25.8 23.0 13.3 46 7.3 NNW 20 26 11 14 1015.4 1015.4 0.0
27/03:00pm 26.4 23.6 13.2 44 7.7 NNW 20 26 11 14 1015.3 1015.3 0.0
27/02:30pm 26.7 23.5 12.0 40 8.5 N 20 26 11 14 1015.2 1015.2 0.0
27/02:00pm 26.7 23.7 12.0 40 8.4 NNE 19 22 10 12 1015.4 1015.4 0.0
27/01:30pm 26.7 24.5 14.8 48 7.2 NNE 20 28 11 15 1015.6 1015.6 0.0
27/01:00pm 27.0 24.6 15.4 49 7.1 NNE 22 28 12 15 1015.9 1015.9 0.0
27/12:30pm 25.8 23.4 16.4 56 5.8 N 24 32 13 17 1016.3 1016.3 0.0
27/12:00pm 25.8 23.3 16.1 55 5.9 NNE 24 30 13 16 1016.6 1016.6 0.0
27/11:30am 26.2 24.7 16.4 54 6.0 NNE 19 22 10 12 1017.0 1017.0 0.0
27/11:00am 26.5 24.9 16.1 52 6.4 NE 19 26 10 14 1017.2 1017.2 0.0
27/10:30am 25.9 24.4 15.3 52 6.4 ENE 17 24 9 13 1017.7 1017.7 0.0
27/10:00am 24.6 23.7 15.8 58 5.3 ENE 15 26 8 14 1017.8 1017.8 0.0
27/09:30am 23.7 22.5 16.2 63 4.6 ENE 17 20 9 11 1017.9 1017.9 0.0

Other Formats:

Comma delimited format used in spreadsheet applications
http://www.bom.gov.au/fwo/IDW60801/IDW60801.95305.axf

JavaScript Object Notation format (JSON) in row-major order
http://www.bom.gov.au/fwo/IDW60801/IDW60801.95305.json